sensor_id;sensor_type;location;lat;lon;timestamp;P1;durP1;ratioP1;P2;durP2;ratioP2
29550;SDS011;16488;52.396;10.696;2023-01-25T00:02:00;19.42;;;11.65;;
29550;SDS011;16488;52.396;10.696;2023-01-25T00:04:26;18.23;;;11.20;;
29550;SDS011;16488;52.396;10.696;2023-01-25T00:09:18;18.38;;;10.52;;
29550;SDS011;16488;52.396;10.696;2023-01-25T00:11:44;22.40;;;11.93;;
29550;SDS011;16488;52.396;10.696;2023-01-25T00:16:36;18.98;;;11.48;;
29550;SDS011;16488;52.396;10.696;2023-01-25T00:19:03;24.88;;;12.20;;
29550;SDS011;16488;52.396;10.696;2023-01-25T00:21:29;21.23;;;12.80;;
29550;SDS011;16488;52.396;10.696;2023-01-25T00:23:55;22.30;;;12.75;;
29550;SDS011;16488;52.396;10.696;2023-01-25T00:26:20;19.50;;;11.45;;
29550;SDS011;16488;52.396;10.696;2023-01-25T00:28:53;24.35;;;12.88;;
29550;SDS011;16488;52.396;10.696;2023-01-25T00:31:21;25.38;;;14.82;;
29550;SDS011;16488;52.396;10.696;2023-01-25T00:33:56;23.23;;;13.30;;
29550;SDS011;16488;52.396;10.696;2023-01-25T00:36:51;23.40;;;13.38;;
29550;SDS011;16488;52.396;10.696;2023-01-25T00:39:21;21.40;;;12.90;;
29550;SDS011;16488;52.396;10.696;2023-01-25T00:41:47;24.65;;;14.23;;
29550;SDS011;16488;52.396;10.696;2023-01-25T00:44:13;24.33;;;13.73;;
29550;SDS011;16488;52.396;10.696;2023-01-25T00:46:38;33.60;;;14.35;;
29550;SDS011;16488;52.396;10.696;2023-01-25T00:49:04;23.50;;;14.05;;
29550;SDS011;16488;52.396;10.696;2023-01-25T00:51:30;23.48;;;13.15;;
29550;SDS011;16488;52.396;10.696;2023-01-25T00:53:55;25.52;;;14.48;;
29550;SDS011;16488;52.396;10.696;2023-01-25T00:56:21;25.63;;;14.73;;
29550;SDS011;16488;52.396;10.696;2023-01-25T00:58:47;23.13;;;13.30;;
29550;SDS011;16488;52.396;10.696;2023-01-25T01:01:12;28.13;;;13.98;;
29550;SDS011;16488;52.396;10.696;2023-01-25T01:03:38;28.70;;;14.50;;
29550;SDS011;16488;52.396;10.696;2023-01-25T01:06:07;21.25;;;13.45;;
29550;SDS011;16488;52.396;10.696;2023-01-25T01:08:37;26.95;;;13.80;;
29550;SDS011;16488;52.396;10.696;2023-01-25T01:11:04;26.05;;;14.60;;
29550;SDS011;16488;52.396;10.696;2023-01-25T01:13:32;24.42;;;14.38;;
29550;SDS011;16488;52.396;10.696;2023-01-25T01:16:01;24.90;;;13.90;;
29550;SDS011;16488;52.396;10.696;2023-01-25T01:18:28;24.75;;;13.45;;
29550;SDS011;16488;52.396;10.696;2023-01-25T01:21:01;22.30;;;12.98;;
29550;SDS011;16488;52.396;10.696;2023-01-25T01:23:27;25.40;;;13.23;;
29550;SDS011;16488;52.396;10.696;2023-01-25T01:28:18;21.30;;;11.18;;
29550;SDS011;16488;52.396;10.696;2023-01-25T01:30:44;23.15;;;12.35;;
29550;SDS011;16488;52.396;10.696;2023-01-25T01:33:10;27.10;;;13.20;;
29550;SDS011;16488;52.396;10.696;2023-01-25T01:35:35;25.50;;;13.25;;
29550;SDS011;16488;52.396;10.696;2023-01-25T01:38:01;25.60;;;14.35;;
29550;SDS011;16488;52.396;10.696;2023-01-25T01:40:27;24.20;;;12.73;;
29550;SDS011;16488;52.396;10.696;2023-01-25T01:51:20;27.60;;;13.93;;
29550;SDS011;16488;52.396;10.696;2023-01-25T01:54:06;28.02;;;14.63;;
29550;SDS011;16488;52.396;10.696;2023-01-25T01:56:38;25.30;;;13.73;;
29550;SDS011;16488;52.396;10.696;2023-01-25T01:59:09;22.98;;;13.38;;
29550;SDS011;16488;52.396;10.696;2023-01-25T02:01:35;24.98;;;13.18;;
29550;SDS011;16488;52.396;10.696;2023-01-25T02:04:01;27.17;;;14.35;;
29550;SDS011;16488;52.396;10.696;2023-01-25T02:09:18;25.95;;;13.65;;
29550;SDS011;16488;52.396;10.696;2023-01-25T02:11:46;23.15;;;13.30;;
29550;SDS011;16488;52.396;10.696;2023-01-25T02:14:14;24.27;;;13.15;;
29550;SDS011;16488;52.396;10.696;2023-01-25T02:16:41;27.10;;;13.10;;
29550;SDS011;16488;52.396;10.696;2023-01-25T02:19:08;25.42;;;13.65;;
29550;SDS011;16488;52.396;10.696;2023-01-25T02:21:44;23.17;;;13.40;;
29550;SDS011;16488;52.396;10.696;2023-01-25T02:24:14;26.33;;;14.45;;
29550;SDS011;16488;52.396;10.696;2023-01-25T02:26:46;23.85;;;13.80;;
29550;SDS011;16488;52.396;10.696;2023-01-25T02:29:12;25.45;;;14.27;;
29550;SDS011;16488;52.396;10.696;2023-01-25T02:31:38;22.13;;;12.60;;
29550;SDS011;16488;52.396;10.696;2023-01-25T02:34:03;32.72;;;14.52;;
29550;SDS011;16488;52.396;10.696;2023-01-25T02:36:33;28.88;;;15.23;;
29550;SDS011;16488;52.396;10.696;2023-01-25T02:41:38;24.40;;;13.48;;
29550;SDS011;16488;52.396;10.696;2023-01-25T02:44:09;24.48;;;13.43;;
29550;SDS011;16488;52.396;10.696;2023-01-25T02:46:41;27.98;;;14.75;;
29550;SDS011;16488;52.396;10.696;2023-01-25T02:49:09;30.58;;;14.80;;
29550;SDS011;16488;52.396;10.696;2023-01-25T02:51:37;30.05;;;15.70;;
29550;SDS011;16488;52.396;10.696;2023-01-25T02:54:05;30.40;;;15.77;;
29550;SDS011;16488;52.396;10.696;2023-01-25T02:56:32;30.13;;;15.60;;
29550;SDS011;16488;52.396;10.696;2023-01-25T02:58:58;32.28;;;16.70;;
29550;SDS011;16488;52.396;10.696;2023-01-25T03:01:24;32.78;;;16.92;;
29550;SDS011;16488;52.396;10.696;2023-01-25T03:03:49;32.40;;;17.95;;
29550;SDS011;16488;52.396;10.696;2023-01-25T03:06:15;43.65;;;20.42;;
29550;SDS011;16488;52.396;10.696;2023-01-25T03:08:41;41.72;;;19.85;;
29550;SDS011;16488;52.396;10.696;2023-01-25T03:13:33;45.20;;;20.15;;
29550;SDS011;16488;52.396;10.696;2023-01-25T03:16:04;44.65;;;20.92;;
29550;SDS011;16488;52.396;10.696;2023-01-25T03:18:32;52.08;;;24.23;;
29550;SDS011;16488;52.396;10.696;2023-01-25T03:21:08;48.38;;;23.35;;
29550;SDS011;16488;52.396;10.696;2023-01-25T03:23:36;43.67;;;22.42;;
29550;SDS011;16488;52.396;10.696;2023-01-25T03:26:21;49.28;;;22.65;;
29550;SDS011;16488;52.396;10.696;2023-01-25T03:28:48;47.05;;;22.92;;
29550;SDS011;16488;52.396;10.696;2023-01-25T03:31:14;49.72;;;24.77;;
29550;SDS011;16488;52.396;10.696;2023-01-25T03:33:40;56.97;;;25.02;;
29550;SDS011;16488;52.396;10.696;2023-01-25T03:36:06;57.28;;;24.92;;
29550;SDS011;16488;52.396;10.696;2023-01-25T03:38:33;53.50;;;24.48;;
29550;SDS011;16488;52.396;10.696;2023-01-25T03:40:59;55.85;;;25.95;;
29550;SDS011;16488;52.396;10.696;2023-01-25T03:43:25;56.25;;;25.63;;
29550;SDS011;16488;52.396;10.696;2023-01-25T03:45:52;56.85;;;23.88;;
29550;SDS011;16488;52.396;10.696;2023-01-25T03:48:20;53.47;;;23.73;;
29550;SDS011;16488;52.396;10.696;2023-01-25T03:50:53;55.85;;;25.17;;
29550;SDS011;16488;52.396;10.696;2023-01-25T03:53:20;64.30;;;26.02;;
29550;SDS011;16488;52.396;10.696;2023-01-25T03:58:32;74.85;;;28.55;;
29550;SDS011;16488;52.396;10.696;2023-01-25T04:00:59;77.13;;;29.08;;
29550;SDS011;16488;52.396;10.696;2023-01-25T04:03:26;68.47;;;29.23;;
29550;SDS011;16488;52.396;10.696;2023-01-25T04:05:53;82.90;;;31.33;;
29550;SDS011;16488;52.396;10.696;2023-01-25T04:08:20;86.28;;;32.15;;
29550;SDS011;16488;52.396;10.696;2023-01-25T04:10:50;89.75;;;33.03;;
29550;SDS011;16488;52.396;10.696;2023-01-25T04:13:17;88.82;;;32.28;;
29550;SDS011;16488;52.396;10.696;2023-01-25T04:15:44;82.30;;;32.83;;
29550;SDS011;16488;52.396;10.696;2023-01-25T04:18:09;89.45;;;32.35;;
29550;SDS011;16488;52.396;10.696;2023-01-25T04:20:35;88.55;;;32.90;;
29550;SDS011;16488;52.396;10.696;2023-01-25T04:23:00;92.70;;;31.83;;
29550;SDS011;16488;52.396;10.696;2023-01-25T04:25:26;83.18;;;31.23;;
29550;SDS011;16488;52.396;10.696;2023-01-25T04:27:52;79.85;;;28.80;;
29550;SDS011;16488;52.396;10.696;2023-01-25T04:30:17;86.05;;;30.75;;
29550;SDS011;16488;52.396;10.696;2023-01-25T04:32:43;91.90;;;30.90;;
29550;SDS011;16488;52.396;10.696;2023-01-25T04:35:09;94.30;;;32.83;;
29550;SDS011;16488;52.396;10.696;2023-01-25T04:37:35;94.43;;;32.25;;
29550;SDS011;16488;52.396;10.696;2023-01-25T04:40:00;90.97;;;31.38;;
29550;SDS011;16488;52.396;10.696;2023-01-25T04:42:26;79.45;;;31.15;;
29550;SDS011;16488;52.396;10.696;2023-01-25T04:44:51;84.78;;;30.50;;
29550;SDS011;16488;52.396;10.696;2023-01-25T04:47:17;90.10;;;33.17;;
29550;SDS011;16488;52.396;10.696;2023-01-25T04:49:42;101.80;;;32.40;;
29550;SDS011;16488;52.396;10.696;2023-01-25T04:52:08;99.05;;;32.45;;
29550;SDS011;16488;52.396;10.696;2023-01-25T04:54:33;95.85;;;32.92;;
29550;SDS011;16488;52.396;10.696;2023-01-25T04:56:59;96.05;;;32.25;;
29550;SDS011;16488;52.396;10.696;2023-01-25T04:59:25;105.22;;;35.97;;
29550;SDS011;16488;52.396;10.696;2023-01-25T05:01:50;97.80;;;31.83;;
29550;SDS011;16488;52.396;10.696;2023-01-25T05:04:16;94.53;;;34.88;;
29550;SDS011;16488;52.396;10.696;2023-01-25T05:06:41;87.85;;;33.45;;
29550;SDS011;16488;52.396;10.696;2023-01-25T05:09:08;93.18;;;32.00;;
29550;SDS011;16488;52.396;10.696;2023-01-25T05:11:34;90.63;;;34.60;;
29550;SDS011;16488;52.396;10.696;2023-01-25T05:13:59;77.28;;;27.90;;
29550;SDS011;16488;52.396;10.696;2023-01-25T05:16:25;78.10;;;30.55;;
29550;SDS011;16488;52.396;10.696;2023-01-25T05:18:50;69.00;;;26.45;;
29550;SDS011;16488;52.396;10.696;2023-01-25T05:21:18;71.57;;;26.75;;
29550;SDS011;16488;52.396;10.696;2023-01-25T05:24:02;68.40;;;24.45;;
29550;SDS011;16488;52.396;10.696;2023-01-25T05:26:28;61.85;;;24.13;;
29550;SDS011;16488;52.396;10.696;2023-01-25T05:29:12;70.97;;;26.30;;
29550;SDS011;16488;52.396;10.696;2023-01-25T05:31:37;63.25;;;24.13;;
29550;SDS011;16488;52.396;10.696;2023-01-25T05:34:03;71.38;;;25.10;;
29550;SDS011;16488;52.396;10.696;2023-01-25T05:36:29;71.95;;;26.27;;
29550;SDS011;16488;52.396;10.696;2023-01-25T05:38:54;77.63;;;28.58;;
29550;SDS011;16488;52.396;10.696;2023-01-25T05:41:20;62.25;;;25.58;;
29550;SDS011;16488;52.396;10.696;2023-01-25T05:43:48;64.25;;;26.48;;
29550;SDS011;16488;52.396;10.696;2023-01-25T05:46:14;75.88;;;29.40;;
29550;SDS011;16488;52.396;10.696;2023-01-25T05:48:39;71.85;;;28.35;;
29550;SDS011;16488;52.396;10.696;2023-01-25T05:51:05;73.70;;;26.75;;
29550;SDS011;16488;52.396;10.696;2023-01-25T05:53:31;75.03;;;27.02;;
29550;SDS011;16488;52.396;10.696;2023-01-25T05:56:02;70.15;;;26.92;;
29550;SDS011;16488;52.396;10.696;2023-01-25T05:58:29;63.78;;;24.52;;
29550;SDS011;16488;52.396;10.696;2023-01-25T06:00:54;66.95;;;23.70;;
29550;SDS011;16488;52.396;10.696;2023-01-25T06:03:20;62.28;;;25.00;;
29550;SDS011;16488;52.396;10.696;2023-01-25T06:05:45;59.92;;;25.52;;
29550;SDS011;16488;52.396;10.696;2023-01-25T06:08:11;60.20;;;25.40;;
29550;SDS011;16488;52.396;10.696;2023-01-25T06:10:37;58.58;;;23.50;;
29550;SDS011;16488;52.396;10.696;2023-01-25T06:13:02;56.22;;;23.73;;
29550;SDS011;16488;52.396;10.696;2023-01-25T06:15:28;63.65;;;25.38;;
29550;SDS011;16488;52.396;10.696;2023-01-25T06:17:54;61.97;;;24.88;;
29550;SDS011;16488;52.396;10.696;2023-01-25T06:20:20;56.00;;;25.13;;
29550;SDS011;16488;52.396;10.696;2023-01-25T06:22:51;56.60;;;22.58;;
29550;SDS011;16488;52.396;10.696;2023-01-25T06:25:17;48.60;;;20.67;;
29550;SDS011;16488;52.396;10.696;2023-01-25T06:27:43;50.47;;;20.52;;
29550;SDS011;16488;52.396;10.696;2023-01-25T06:30:09;54.17;;;22.35;;
29550;SDS011;16488;52.396;10.696;2023-01-25T06:32:35;44.72;;;19.60;;
29550;SDS011;16488;52.396;10.696;2023-01-25T06:35:00;45.85;;;19.65;;
29550;SDS011;16488;52.396;10.696;2023-01-25T06:37:26;51.65;;;19.70;;
29550;SDS011;16488;52.396;10.696;2023-01-25T06:39:52;43.88;;;19.27;;
29550;SDS011;16488;52.396;10.696;2023-01-25T06:42:17;47.40;;;18.50;;
29550;SDS011;16488;52.396;10.696;2023-01-25T06:44:43;57.42;;;20.77;;
29550;SDS011;16488;52.396;10.696;2023-01-25T06:47:09;54.30;;;19.15;;
29550;SDS011;16488;52.396;10.696;2023-01-25T06:49:35;50.28;;;20.90;;
29550;SDS011;16488;52.396;10.696;2023-01-25T06:52:00;46.10;;;20.42;;
29550;SDS011;16488;52.396;10.696;2023-01-25T06:54:26;48.10;;;20.83;;
29550;SDS011;16488;52.396;10.696;2023-01-25T06:56:52;52.33;;;21.83;;
29550;SDS011;16488;52.396;10.696;2023-01-25T06:59:17;56.45;;;22.33;;
29550;SDS011;16488;52.396;10.696;2023-01-25T07:01:43;60.45;;;24.63;;
29550;SDS011;16488;52.396;10.696;2023-01-25T07:04:09;48.53;;;21.38;;
29550;SDS011;16488;52.396;10.696;2023-01-25T07:06:36;50.85;;;21.00;;
29550;SDS011;16488;52.396;10.696;2023-01-25T07:09:02;53.60;;;19.90;;
29550;SDS011;16488;52.396;10.696;2023-01-25T07:11:29;54.15;;;19.55;;
29550;SDS011;16488;52.396;10.696;2023-01-25T07:13:55;57.35;;;20.15;;
29550;SDS011;16488;52.396;10.696;2023-01-25T07:16:20;53.80;;;20.45;;
29550;SDS011;16488;52.396;10.696;2023-01-25T07:18:46;65.00;;;21.30;;
29550;SDS011;16488;52.396;10.696;2023-01-25T07:23:39;56.60;;;21.73;;
29550;SDS011;16488;52.396;10.696;2023-01-25T07:26:09;54.83;;;20.35;;
29550;SDS011;16488;52.396;10.696;2023-01-25T07:28:41;59.40;;;20.13;;
29550;SDS011;16488;52.396;10.696;2023-01-25T07:31:07;63.42;;;23.27;;
29550;SDS011;16488;52.396;10.696;2023-01-25T07:33:33;57.58;;;21.70;;
29550;SDS011;16488;52.396;10.696;2023-01-25T07:38:29;57.70;;;20.95;;
29550;SDS011;16488;52.396;10.696;2023-01-25T07:40:55;62.55;;;22.27;;
29550;SDS011;16488;52.396;10.696;2023-01-25T07:43:20;64.93;;;24.20;;
29550;SDS011;16488;52.396;10.696;2023-01-25T07:45:46;61.30;;;23.55;;
29550;SDS011;16488;52.396;10.696;2023-01-25T07:48:15;69.07;;;23.95;;
29550;SDS011;16488;52.396;10.696;2023-01-25T07:50:42;62.70;;;24.55;;
29550;SDS011;16488;52.396;10.696;2023-01-25T07:53:13;67.18;;;25.83;;
29550;SDS011;16488;52.396;10.696;2023-01-25T07:55:39;66.25;;;24.60;;
29550;SDS011;16488;52.396;10.696;2023-01-25T07:58:05;55.05;;;20.02;;
29550;SDS011;16488;52.396;10.696;2023-01-25T08:00:30;61.35;;;22.20;;
29550;SDS011;16488;52.396;10.696;2023-01-25T08:02:56;60.58;;;20.80;;
29550;SDS011;16488;52.396;10.696;2023-01-25T08:05:22;56.72;;;21.25;;
29550;SDS011;16488;52.396;10.696;2023-01-25T08:07:49;55.28;;;21.15;;
29550;SDS011;16488;52.396;10.696;2023-01-25T08:10:15;49.55;;;19.42;;
29550;SDS011;16488;52.396;10.696;2023-01-25T08:12:43;52.95;;;21.42;;
29550;SDS011;16488;52.396;10.696;2023-01-25T08:15:10;60.58;;;21.75;;
29550;SDS011;16488;52.396;10.696;2023-01-25T08:17:36;57.20;;;22.33;;
29550;SDS011;16488;52.396;10.696;2023-01-25T08:20:02;60.95;;;23.63;;
29550;SDS011;16488;52.396;10.696;2023-01-25T08:22:29;66.80;;;21.88;;
29550;SDS011;16488;52.396;10.696;2023-01-25T08:24:54;67.32;;;23.45;;
29550;SDS011;16488;52.396;10.696;2023-01-25T08:27:20;69.57;;;23.25;;
29550;SDS011;16488;52.396;10.696;2023-01-25T08:29:46;62.10;;;23.40;;
29550;SDS011;16488;52.396;10.696;2023-01-25T08:32:14;64.47;;;24.88;;
29550;SDS011;16488;52.396;10.696;2023-01-25T08:34:40;68.63;;;23.52;;
29550;SDS011;16488;52.396;10.696;2023-01-25T08:37:06;67.47;;;22.83;;
29550;SDS011;16488;52.396;10.696;2023-01-25T08:39:32;73.35;;;24.45;;
29550;SDS011;16488;52.396;10.696;2023-01-25T08:41:57;73.50;;;23.90;;
29550;SDS011;16488;52.396;10.696;2023-01-25T08:44:23;70.47;;;23.38;;
29550;SDS011;16488;52.396;10.696;2023-01-25T08:46:50;65.45;;;24.17;;
29550;SDS011;16488;52.396;10.696;2023-01-25T08:49:16;67.72;;;25.65;;
29550;SDS011;16488;52.396;10.696;2023-01-25T08:51:42;59.53;;;19.65;;
29550;SDS011;16488;52.396;10.696;2023-01-25T08:59:01;49.20;;;19.17;;
29550;SDS011;16488;52.396;10.696;2023-01-25T09:01:26;60.75;;;21.45;;
29550;SDS011;16488;52.396;10.696;2023-01-25T09:03:52;57.63;;;20.65;;
29550;SDS011;16488;52.396;10.696;2023-01-25T09:06:18;63.22;;;21.65;;
29550;SDS011;16488;52.396;10.696;2023-01-25T09:08:44;60.88;;;21.65;;
29550;SDS011;16488;52.396;10.696;2023-01-25T09:11:11;60.17;;;22.55;;
29550;SDS011;16488;52.396;10.696;2023-01-25T09:13:38;66.55;;;21.65;;
29550;SDS011;16488;52.396;10.696;2023-01-25T09:16:08;42.13;;;16.10;;
29550;SDS011;16488;52.396;10.696;2023-01-25T09:18:35;60.33;;;19.85;;
29550;SDS011;16488;52.396;10.696;2023-01-25T09:21:05;53.33;;;17.63;;
29550;SDS011;16488;52.396;10.696;2023-01-25T09:23:32;45.05;;;16.85;;
29550;SDS011;16488;52.396;10.696;2023-01-25T09:25:58;43.22;;;17.05;;
29550;SDS011;16488;52.396;10.696;2023-01-25T09:28:25;50.97;;;18.33;;
29550;SDS011;16488;52.396;10.696;2023-01-25T09:31:04;54.35;;;18.70;;
29550;SDS011;16488;52.396;10.696;2023-01-25T09:33:31;47.03;;;19.17;;
29550;SDS011;16488;52.396;10.696;2023-01-25T09:35:59;54.72;;;19.45;;
29550;SDS011;16488;52.396;10.696;2023-01-25T09:38:25;60.50;;;20.85;;
29550;SDS011;16488;52.396;10.696;2023-01-25T09:46:58;47.63;;;16.98;;
29550;SDS011;16488;52.396;10.696;2023-01-25T09:52:12;57.75;;;20.00;;
29550;SDS011;16488;52.396;10.696;2023-01-25T09:54:42;47.00;;;18.77;;
29550;SDS011;16488;52.396;10.696;2023-01-25T09:57:51;53.58;;;20.38;;
29550;SDS011;16488;52.396;10.696;2023-01-25T10:00:03;46.35;;;19.55;;
29550;SDS011;16488;52.396;10.696;2023-01-25T10:03:06;60.72;;;21.50;;
29550;SDS011;16488;52.396;10.696;2023-01-25T10:05:40;53.30;;;20.13;;
29550;SDS011;16488;52.396;10.696;2023-01-25T10:08:17;53.67;;;19.90;;
29550;SDS011;16488;52.396;10.696;2023-01-25T10:13:55;56.70;;;21.35;;
29550;SDS011;16488;52.396;10.696;2023-01-25T10:16:33;63.97;;;22.20;;
29550;SDS011;16488;52.396;10.696;2023-01-25T10:19:13;57.00;;;20.77;;
29550;SDS011;16488;52.396;10.696;2023-01-25T10:24:35;67.28;;;21.30;;
29550;SDS011;16488;52.396;10.696;2023-01-25T10:30:17;68.72;;;26.90;;
29550;SDS011;16488;52.396;10.696;2023-01-25T10:32:48;74.10;;;24.30;;
29550;SDS011;16488;52.396;10.696;2023-01-25T10:35:18;79.20;;;24.75;;
29550;SDS011;16488;52.396;10.696;2023-01-25T10:37:46;76.70;;;24.85;;
29550;SDS011;16488;52.396;10.696;2023-01-25T10:40:23;72.25;;;23.98;;
29550;SDS011;16488;52.396;10.696;2023-01-25T10:42:55;77.95;;;26.40;;
29550;SDS011;16488;52.396;10.696;2023-01-25T10:45:31;80.38;;;28.60;;
29550;SDS011;16488;52.396;10.696;2023-01-25T10:47:59;86.63;;;28.88;;
29550;SDS011;16488;52.396;10.696;2023-01-25T10:53:24;83.63;;;27.48;;
29550;SDS011;16488;52.396;10.696;2023-01-25T10:56:10;98.13;;;31.27;;
29550;SDS011;16488;52.396;10.696;2023-01-25T10:58:44;82.22;;;27.50;;
29550;SDS011;16488;52.396;10.696;2023-01-25T11:01:28;84.70;;;28.33;;
29550;SDS011;16488;52.396;10.696;2023-01-25T11:03:56;70.32;;;25.65;;
29550;SDS011;16488;52.396;10.696;2023-01-25T11:09:43;76.43;;;25.40;;
29550;SDS011;16488;52.396;10.696;2023-01-25T11:11:53;78.18;;;27.50;;
29550;SDS011;16488;52.396;10.696;2023-01-25T11:14:21;90.95;;;26.73;;
29550;SDS011;16488;52.396;10.696;2023-01-25T11:16:50;62.13;;;25.55;;
29550;SDS011;16488;52.396;10.696;2023-01-25T11:19:23;84.65;;;31.50;;
29550;SDS011;16488;52.396;10.696;2023-01-25T11:21:52;83.10;;;28.27;;
29550;SDS011;16488;52.396;10.696;2023-01-25T11:24:20;81.28;;;30.95;;
29550;SDS011;16488;52.396;10.696;2023-01-25T11:26:49;99.30;;;32.58;;
29550;SDS011;16488;52.396;10.696;2023-01-25T11:31:43;146.07;;;39.92;;
29550;SDS011;16488;52.396;10.696;2023-01-25T11:34:14;136.73;;;43.08;;
29550;SDS011;16488;52.396;10.696;2023-01-25T11:36:49;161.70;;;46.35;;
29550;SDS011;16488;52.396;10.696;2023-01-25T11:39:41;205.55;;;50.70;;
29550;SDS011;16488;52.396;10.696;2023-01-25T11:47:28;147.75;;;45.03;;
29550;SDS011;16488;52.396;10.696;2023-01-25T11:53:05;169.82;;;44.13;;
29550;SDS011;16488;52.396;10.696;2023-01-25T11:55:57;141.05;;;44.10;;
29550;SDS011;16488;52.396;10.696;2023-01-25T12:06:57;119.63;;;36.58;;
29550;SDS011;16488;52.396;10.696;2023-01-25T12:09:49;120.90;;;36.22;;
29550;SDS011;16488;52.396;10.696;2023-01-25T12:23:25;67.15;;;25.65;;
29550;SDS011;16488;52.396;10.696;2023-01-25T12:26:18;87.85;;;26.60;;
29550;SDS011;16488;52.396;10.696;2023-01-25T12:28:58;83.80;;;26.40;;
29550;SDS011;16488;52.396;10.696;2023-01-25T12:31:52;84.78;;;27.92;;
29550;SDS011;16488;52.396;10.696;2023-01-25T12:34:32;73.80;;;25.00;;
29550;SDS011;16488;52.396;10.696;2023-01-25T12:37:04;65.68;;;24.27;;
29550;SDS011;16488;52.396;10.696;2023-01-25T12:39:53;56.17;;;18.60;;
29550;SDS011;16488;52.396;10.696;2023-01-25T12:42:36;52.25;;;19.50;;
29550;SDS011;16488;52.396;10.696;2023-01-25T12:45:10;56.15;;;20.00;;
29550;SDS011;16488;52.396;10.696;2023-01-25T12:50:40;76.00;;;20.00;;
29550;SDS011;16488;52.396;10.696;2023-01-25T12:53:19;59.40;;;23.38;;
29550;SDS011;16488;52.396;10.696;2023-01-25T12:55:58;50.35;;;20.02;;
29550;SDS011;16488;52.396;10.696;2023-01-25T12:58:30;71.32;;;21.80;;
29550;SDS011;16488;52.396;10.696;2023-01-25T13:06:51;61.75;;;20.63;;
29550;SDS011;16488;52.396;10.696;2023-01-25T13:11:58;56.00;;;18.75;;
29550;SDS011;16488;52.396;10.696;2023-01-25T13:14:28;56.58;;;20.40;;
29550;SDS011;16488;52.396;10.696;2023-01-25T13:17:20;60.78;;;21.67;;
29550;SDS011;16488;52.396;10.696;2023-01-25T13:19:56;51.22;;;18.80;;
29550;SDS011;16488;52.396;10.696;2023-01-25T13:25:17;53.55;;;20.55;;
29550;SDS011;16488;52.396;10.696;2023-01-25T13:27:44;54.47;;;19.85;;
29550;SDS011;16488;52.396;10.696;2023-01-25T13:30:32;61.72;;;19.55;;
29550;SDS011;16488;52.396;10.696;2023-01-25T13:32:59;56.10;;;19.20;;
29550;SDS011;16488;52.396;10.696;2023-01-25T13:35:36;59.65;;;19.10;;
29550;SDS011;16488;52.396;10.696;2023-01-25T13:40:41;50.97;;;18.35;;
29550;SDS011;16488;52.396;10.696;2023-01-25T13:45:36;61.85;;;19.55;;
29550;SDS011;16488;52.396;10.696;2023-01-25T13:50:37;49.17;;;18.52;;
29550;SDS011;16488;52.396;10.696;2023-01-25T13:55:42;53.38;;;20.02;;
29550;SDS011;16488;52.396;10.696;2023-01-25T13:58:27;48.35;;;18.33;;
29550;SDS011;16488;52.396;10.696;2023-01-25T14:00:56;52.97;;;18.30;;
29550;SDS011;16488;52.396;10.696;2023-01-25T14:03:27;48.40;;;16.70;;
29550;SDS011;16488;52.396;10.696;2023-01-25T14:05:55;62.88;;;17.45;;
29550;SDS011;16488;52.396;10.696;2023-01-25T14:08:23;57.53;;;19.02;;
29550;SDS011;16488;52.396;10.696;2023-01-25T14:10:50;52.92;;;18.52;;
29550;SDS011;16488;52.396;10.696;2023-01-25T14:13:17;50.40;;;17.98;;
29550;SDS011;16488;52.396;10.696;2023-01-25T14:15:59;56.65;;;18.05;;
29550;SDS011;16488;52.396;10.696;2023-01-25T14:21:11;51.33;;;17.67;;
29550;SDS011;16488;52.396;10.696;2023-01-25T14:23:41;54.05;;;19.30;;
29550;SDS011;16488;52.396;10.696;2023-01-25T14:26:26;50.00;;;20.20;;
29550;SDS011;16488;52.396;10.696;2023-01-25T14:28:53;44.03;;;17.48;;
29550;SDS011;16488;52.396;10.696;2023-01-25T14:31:22;48.88;;;16.02;;
29550;SDS011;16488;52.396;10.696;2023-01-25T14:33:49;45.53;;;17.88;;
29550;SDS011;16488;52.396;10.696;2023-01-25T14:36:22;51.70;;;17.08;;
29550;SDS011;16488;52.396;10.696;2023-01-25T14:38:52;43.53;;;16.02;;
29550;SDS011;16488;52.396;10.696;2023-01-25T14:41:19;53.63;;;18.40;;
29550;SDS011;16488;52.396;10.696;2023-01-25T14:44:09;43.40;;;17.88;;
29550;SDS011;16488;52.396;10.696;2023-01-25T14:46:37;45.17;;;18.25;;
29550;SDS011;16488;52.396;10.696;2023-01-25T14:51:49;48.65;;;16.58;;
29550;SDS011;16488;52.396;10.696;2023-01-25T14:54:19;46.80;;;19.30;;
29550;SDS011;16488;52.396;10.696;2023-01-25T14:56:51;53.05;;;19.83;;
29550;SDS011;16488;52.396;10.696;2023-01-25T14:59:20;53.22;;;18.45;;
29550;SDS011;16488;52.396;10.696;2023-01-25T15:01:59;55.38;;;18.02;;
29550;SDS011;16488;52.396;10.696;2023-01-25T15:04:28;46.75;;;17.30;;
29550;SDS011;16488;52.396;10.696;2023-01-25T15:09:37;43.60;;;16.40;;
29550;SDS011;16488;52.396;10.696;2023-01-25T15:14:47;61.05;;;20.27;;
29550;SDS011;16488;52.396;10.696;2023-01-25T15:17:36;53.05;;;20.75;;
29550;SDS011;16488;52.396;10.696;2023-01-25T15:23:07;61.30;;;19.83;;
29550;SDS011;16488;52.396;10.696;2023-01-25T15:25:54;62.03;;;22.75;;
29550;SDS011;16488;52.396;10.696;2023-01-25T15:28:23;64.88;;;22.08;;
29550;SDS011;16488;52.396;10.696;2023-01-25T15:30:50;55.67;;;19.50;;
29550;SDS011;16488;52.396;10.696;2023-01-25T15:33:20;58.85;;;21.67;;
29550;SDS011;16488;52.396;10.696;2023-01-25T15:35:47;78.78;;;25.42;;
29550;SDS011;16488;52.396;10.696;2023-01-25T15:38:14;68.68;;;23.40;;
29550;SDS011;16488;52.396;10.696;2023-01-25T15:40:42;83.20;;;24.80;;
29550;SDS011;16488;52.396;10.696;2023-01-25T15:43:12;76.80;;;24.95;;
29550;SDS011;16488;52.396;10.696;2023-01-25T15:45:39;68.35;;;24.38;;
29550;SDS011;16488;52.396;10.696;2023-01-25T15:48:14;80.00;;;28.73;;
29550;SDS011;16488;52.396;10.696;2023-01-25T15:50:42;83.65;;;23.75;;
29550;SDS011;16488;52.396;10.696;2023-01-25T15:53:14;74.40;;;25.23;;
29550;SDS011;16488;52.396;10.696;2023-01-25T15:55:45;77.85;;;25.23;;
29550;SDS011;16488;52.396;10.696;2023-01-25T15:58:25;73.20;;;22.42;;
29550;SDS011;16488;52.396;10.696;2023-01-25T16:00:53;58.83;;;22.73;;
29550;SDS011;16488;52.396;10.696;2023-01-25T16:03:19;76.60;;;26.45;;
29550;SDS011;16488;52.396;10.696;2023-01-25T16:05:56;57.10;;;21.88;;
29550;SDS011;16488;52.396;10.696;2023-01-25T16:08:25;65.57;;;21.17;;
29550;SDS011;16488;52.396;10.696;2023-01-25T16:13:17;64.93;;;20.73;;
29550;SDS011;16488;52.396;10.696;2023-01-25T16:15:43;66.03;;;23.33;;
29550;SDS011;16488;52.396;10.696;2023-01-25T16:18:13;68.13;;;23.83;;
29550;SDS011;16488;52.396;10.696;2023-01-25T16:20:39;67.63;;;23.13;;
29550;SDS011;16488;52.396;10.696;2023-01-25T16:23:07;70.32;;;24.20;;
29550;SDS011;16488;52.396;10.696;2023-01-25T16:25:34;71.53;;;25.00;;
29550;SDS011;16488;52.396;10.696;2023-01-25T16:27:59;77.00;;;25.73;;
29550;SDS011;16488;52.396;10.696;2023-01-25T16:30:25;74.43;;;23.73;;
29550;SDS011;16488;52.396;10.696;2023-01-25T16:32:53;82.07;;;27.35;;